createdAt,value
2023-04-06T00:00:22.490Z,3.83
2023-04-06T00:07:57.850Z,3.71
2023-04-06T00:15:32.050Z,3.59
2023-04-06T00:23:07.356Z,3.51
2023-04-06T00:38:36.204Z,3.35
2023-04-06T00:46:10.494Z,3.29
2023-04-06T00:53:46.166Z,3.19
2023-04-06T01:01:20.313Z,3.10
2023-04-06T01:24:41.265Z,2.71
2023-04-06T01:32:15.636Z,2.58
2023-04-06T01:39:51.281Z,2.50
2023-04-06T01:47:25.525Z,2.42
2023-04-06T01:55:00.913Z,2.33
2023-04-06T02:02:35.053Z,2.22
2023-04-06T02:10:14.608Z,2.13
2023-04-06T02:17:48.769Z,2.09
2023-04-06T02:25:24.599Z,2.02
2023-04-06T02:32:58.603Z,1.93
2023-04-06T02:40:34.163Z,1.87
2023-04-06T02:48:08.335Z,1.80
2023-04-06T02:55:43.771Z,1.71
2023-04-06T03:03:17.893Z,1.64
2023-04-06T03:10:53.366Z,1.54
2023-04-06T03:18:27.618Z,1.45
2023-04-06T03:26:03.960Z,1.38
2023-04-06T03:33:37.957Z,1.32
2023-04-06T03:41:13.578Z,1.25
2023-04-06T03:48:47.943Z,1.19
2023-04-06T03:56:23.420Z,1.15
2023-04-06T04:03:57.488Z,1.11
2023-04-06T04:11:32.900Z,1.06
2023-04-06T04:19:07.098Z,1.01
2023-04-06T04:26:43.113Z,0.96
2023-04-06T04:34:17.996Z,0.92
2023-04-06T04:41:53.443Z,0.86
2023-04-06T04:49:27.579Z,0.83
2023-04-06T04:57:02.977Z,0.82
2023-04-06T05:04:37.895Z,0.81
2023-04-06T05:12:13.542Z,0.81
2023-04-06T05:19:47.841Z,0.84
2023-04-06T05:27:23.140Z,0.88
2023-04-06T05:34:57.334Z,0.94
2023-04-06T05:42:39.140Z,1.09
2023-04-06T05:58:06.664Z,1.44
2023-04-06T06:05:40.698Z,1.65
2023-04-06T06:13:16.079Z,1.99
2023-04-06T06:20:50.067Z,2.39
2023-04-06T06:36:17.474Z,3.05
2023-04-06T06:43:52.908Z,3.17
2023-04-06T06:51:26.889Z,3.53
2023-04-06T06:59:02.316Z,3.63
2023-04-06T07:06:38.038Z,3.85
2023-04-06T07:14:13.991Z,4.11
2023-04-06T07:21:48.144Z,4.59
2023-04-06T07:29:24.152Z,5.05
2023-04-06T07:44:52.496Z,5.91
2023-04-06T07:52:26.637Z,6.44
2023-04-06T08:00:02.405Z,6.88
2023-04-06T08:07:36.946Z,7.91
2023-04-06T08:15:12.796Z,8.60
2023-04-06T08:22:46.688Z,8.91
2023-04-06T08:30:22.389Z,9.57
2023-04-06T08:37:56.800Z,10.13
2023-04-06T08:45:32.525Z,10.26
2023-04-06T08:53:09.207Z,10.51
2023-04-06T09:00:45.331Z,10.74
2023-04-06T09:08:19.499Z,11.09
2023-04-06T09:16:03.916Z,11.13
2023-04-06T09:23:38.597Z,11.47
2023-04-06T09:31:14.459Z,11.78
2023-04-06T09:38:56.896Z,11.49
2023-04-06T09:46:46.485Z,11.24
2023-04-06T09:54:28.754Z,11.82
2023-04-06T10:02:07.582Z,11.93
2023-04-06T10:09:41.952Z,11.94
2023-04-06T10:17:17.759Z,11.60
2023-04-06T10:24:51.881Z,11.39
2023-04-06T10:32:36.859Z,11.15
2023-04-06T10:40:20.674Z,10.96
2023-04-06T10:47:57.830Z,10.95
2023-04-06T10:55:33.405Z,11.07
2023-04-06T11:03:09.670Z,10.75
2023-04-06T11:10:43.779Z,10.74
2023-04-06T11:18:21.550Z,10.78
2023-04-06T11:25:56.662Z,10.85
2023-04-06T11:33:37.746Z,10.90
2023-04-06T11:41:12.028Z,10.75
2023-04-06T11:48:48.959Z,10.94
2023-04-06T11:56:31.614Z,11.06
2023-04-06T12:04:08.240Z,11.26
2023-04-06T12:11:42.923Z,11.38
2023-04-06T12:19:18.216Z,11.33
2023-04-06T12:26:59.645Z,11.52
2023-04-06T12:34:38.449Z,11.16
2023-04-06T12:42:13.522Z,11.27
2023-04-06T12:49:49.877Z,11.62
2023-04-06T12:57:27.625Z,11.74
2023-04-06T13:05:03.024Z,11.55
2023-04-06T13:12:37.379Z,11.37
2023-04-06T13:20:13.145Z,11.75
2023-04-06T13:27:49.549Z,11.83
2023-04-06T13:35:25.115Z,11.75
2023-04-06T13:42:58.920Z,11.86
2023-04-06T13:50:34.865Z,11.84
2023-04-06T13:58:08.780Z,12.04
2023-04-06T14:05:43.899Z,11.90
2023-04-06T14:13:18.108Z,11.82
2023-04-06T14:21:00.568Z,12.03
2023-04-06T14:28:36.806Z,11.62
2023-04-06T14:36:12.533Z,12.00
2023-04-06T14:43:46.788Z,11.98
2023-04-06T14:51:22.270Z,11.89
2023-04-06T14:58:58.037Z,11.87
2023-04-06T15:06:33.795Z,11.84
2023-04-06T15:14:08.499Z,11.48
2023-04-06T15:21:43.708Z,11.64
2023-04-06T15:29:17.584Z,11.42
2023-04-06T15:36:53.948Z,11.34
2023-04-06T15:44:27.756Z,11.41
2023-04-06T15:52:03.293Z,11.53
2023-04-06T15:59:37.029Z,11.46
2023-04-06T16:07:12.507Z,11.45
2023-04-06T16:14:46.789Z,11.19
2023-04-06T16:22:22.313Z,11.18
2023-04-06T16:29:56.097Z,11.12
2023-04-06T16:37:32.424Z,11.03
2023-04-06T16:45:07.596Z,10.82
2023-04-06T16:52:43.065Z,10.75
2023-04-06T17:00:18.015Z,10.53
2023-04-06T17:07:53.330Z,10.32
2023-04-06T17:15:28.572Z,10.16
2023-04-06T17:23:04.014Z,10.01
2023-04-06T17:30:38.548Z,9.87
2023-04-06T17:38:13.906Z,9.71
2023-04-06T17:45:49.867Z,9.55
2023-04-06T17:53:25.502Z,9.42
2023-04-06T18:00:59.389Z,9.29
2023-04-06T18:08:34.578Z,9.15
2023-04-06T18:16:08.689Z,9.03
2023-04-06T18:23:43.990Z,8.87
2023-04-06T18:31:18.463Z,8.76
2023-04-06T18:46:46.027Z,8.43
2023-04-06T18:54:21.374Z,8.29
2023-04-06T19:01:56.675Z,8.16
2023-04-06T19:09:31.981Z,8.02
2023-04-06T19:17:05.987Z,7.85
2023-04-06T19:24:42.551Z,7.74
2023-04-06T19:32:17.488Z,7.59
2023-04-06T19:39:53.173Z,7.51
2023-04-06T19:47:27.132Z,7.39
2023-04-06T19:55:02.585Z,7.33
2023-04-06T20:02:36.680Z,7.23
2023-04-06T20:10:12.267Z,7.09
2023-04-06T20:17:46.232Z,7.08
2023-04-06T20:25:22.046Z,6.93
2023-04-06T20:32:56.059Z,6.87
2023-04-06T20:40:31.311Z,6.80
2023-04-06T20:48:05.367Z,6.72
2023-04-06T21:03:34.548Z,6.64
2023-04-06T21:11:10.684Z,6.59
2023-04-06T21:18:44.612Z,6.49
2023-04-06T21:26:19.872Z,6.37
2023-04-06T21:33:53.860Z,6.25
2023-04-06T21:41:31.841Z,6.12
2023-04-06T21:49:05.681Z,6.03
2023-04-06T21:56:41.022Z,5.92
2023-04-06T22:04:15.444Z,5.82
2023-04-06T22:11:50.958Z,5.70
2023-04-06T22:19:24.858Z,5.59
2023-04-06T22:27:00.118Z,5.44
2023-04-06T22:34:33.983Z,5.31
2023-04-06T22:42:09.656Z,5.17
2023-04-06T22:49:43.878Z,5.04
2023-04-06T22:57:19.196Z,4.95
2023-04-06T23:04:53.236Z,4.82
2023-04-06T23:12:28.728Z,4.70
2023-04-06T23:20:02.686Z,4.60
2023-04-06T23:27:38.068Z,4.52
2023-04-06T23:35:12.402Z,4.43
2023-04-06T23:42:47.898Z,4.33
2023-04-06T23:50:22.218Z,4.22
2023-04-06T23:57:57.596Z,4.15
